Decoded Metar for CYPH (INUKJUAK in QC, CANADA) (IATA:YPH) | Meteo·Mobile Aviation Weather
aviador You're here:

CYPH Decoded Metar

INUKJUAK in QC, CANADA
Report Time2018-09-18 13:00:00
UTC Time2018-09-18 13:54:14
Flight Rules vfr VFR
Wind150° at 08 kt
W.Decomp.*RWY 25: 1.3 kt HW 7.9 kt LCW
W.Rank150° ranks 34
Current wind is below 150° avg. (13.5)
Visibility9999 m
Phenomena:N/A
Clouds:Overcast 045 Hf
Expected CloudBase > 2,800 ft AGL from Temp-Dew spread
Ceiling4,500 ft
Temp02°C (ISA -13)
Dew Point-5°C (60% RH)
AAT-3.5°C
QNH1026 hPa
Density Alt-1,952 ft
Elevation10 ft
Report Wrong Elevation
Raw Report
CYPH 181300Z AUTO 15008KT 9SM OVC045 02/M05 A3029 RMK SLP259=

Extra information for CYPH:More info

Metar Taf Metar & Taf Last 4 Metars F.Rules Stats Wind Profile Meteogram Temp Stats Airport Information Weather charts Add Link Nearby VenuesMetar ALERT Operation Metar Decoded Social comments